sensor_id;sensor_type;location;lat;lon;timestamp;temperature;humidity
15003;DHT22;7597;53.590;10.020;2022-10-31T00:00:45;11.30;1.00
15003;DHT22;7597;53.590;10.020;2022-10-31T00:03:13;11.30;1.00
15003;DHT22;7597;53.590;10.020;2022-10-31T00:05:45;11.30;1.00
15003;DHT22;7597;53.590;10.020;2022-10-31T00:08:11;11.50;1.00
15003;DHT22;7597;53.590;10.020;2022-10-31T00:10:39;11.40;1.00
15003;DHT22;7597;53.590;10.020;2022-10-31T00:13:06;11.40;1.00
15003;DHT22;7597;53.590;10.020;2022-10-31T00:15:33;11.40;1.00
15003;DHT22;7597;53.590;10.020;2022-10-31T00:18:00;11.40;1.00
15003;DHT22;7597;53.590;10.020;2022-10-31T00:20:26;11.50;1.00
15003;DHT22;7597;53.590;10.020;2022-10-31T00:22:53;11.50;1.00
15003;DHT22;7597;53.590;10.020;2022-10-31T00:25:19;11.50;1.00
15003;DHT22;7597;53.590;10.020;2022-10-31T00:27:46;11.50;1.00
15003;DHT22;7597;53.590;10.020;2022-10-31T00:30:13;11.60;1.00
15003;DHT22;7597;53.590;10.020;2022-10-31T00:32:40;11.60;1.00
15003;DHT22;7597;53.590;10.020;2022-10-31T00:35:07;11.70;1.00
15003;DHT22;7597;53.590;10.020;2022-10-31T00:37:33;11.80;1.00
15003;DHT22;7597;53.590;10.020;2022-10-31T00:40:00;11.80;1.00
15003;DHT22;7597;53.590;10.020;2022-10-31T00:42:27;11.90;1.00
15003;DHT22;7597;53.590;10.020;2022-10-31T00:44:53;11.90;1.00
15003;DHT22;7597;53.590;10.020;2022-10-31T00:47:21;12.00;1.00
15003;DHT22;7597;53.590;10.020;2022-10-31T00:49:47;11.90;1.00
15003;DHT22;7597;53.590;10.020;2022-10-31T00:52:14;12.00;1.00
15003;DHT22;7597;53.590;10.020;2022-10-31T00:54:41;12.00;1.00
15003;DHT22;7597;53.590;10.020;2022-10-31T00:57:07;12.00;1.00
15003;DHT22;7597;53.590;10.020;2022-10-31T00:59:35;12.00;1.00
15003;DHT22;7597;53.590;10.020;2022-10-31T01:02:03;12.10;1.00
15003;DHT22;7597;53.590;10.020;2022-10-31T01:04:30;12.00;1.00
15003;DHT22;7597;53.590;10.020;2022-10-31T01:06:58;12.10;1.00
15003;DHT22;7597;53.590;10.020;2022-10-31T01:09:24;12.10;1.00
15003;DHT22;7597;53.590;10.020;2022-10-31T01:11:51;12.20;15.40
15003;DHT22;7597;53.590;10.020;2022-10-31T01:14:18;12.20;48.10
15003;DHT22;7597;53.590;10.020;2022-10-31T01:16:44;12.30;77.50
15003;DHT22;7597;53.590;10.020;2022-10-31T01:19:11;12.40;94.10
15003;DHT22;7597;53.590;10.020;2022-10-31T01:21:39;12.40;99.90
15003;DHT22;7597;53.590;10.020;2022-10-31T01:24:06;12.50;99.90
15003;DHT22;7597;53.590;10.020;2022-10-31T01:26:33;12.40;99.90
15003;DHT22;7597;53.590;10.020;2022-10-31T01:29:00;12.50;99.90
15003;DHT22;7597;53.590;10.020;2022-10-31T01:31:27;12.50;99.90
15003;DHT22;7597;53.590;10.020;2022-10-31T01:33:53;12.40;99.90
15003;DHT22;7597;53.590;10.020;2022-10-31T01:36:20;12.50;99.90
15003;DHT22;7597;53.590;10.020;2022-10-31T01:38:46;12.50;99.90
15003;DHT22;7597;53.590;10.020;2022-10-31T01:41:15;12.60;99.90
15003;DHT22;7597;53.590;10.020;2022-10-31T01:43:52;12.60;99.90
15003;DHT22;7597;53.590;10.020;2022-10-31T01:46:20;12.60;99.90
15003;DHT22;7597;53.590;10.020;2022-10-31T01:48:44;12.70;99.90
15003;DHT22;7597;53.590;10.020;2022-10-31T01:51:11;12.70;99.90
15003;DHT22;7597;53.590;10.020;2022-10-31T01:53:38;12.60;99.90
15003;DHT22;7597;53.590;10.020;2022-10-31T01:56:05;12.60;99.90
15003;DHT22;7597;53.590;10.020;2022-10-31T01:58:32;12.60;99.90
15003;DHT22;7597;53.590;10.020;2022-10-31T02:00:59;12.60;99.90
15003;DHT22;7597;53.590;10.020;2022-10-31T02:03:25;12.60;99.90
15003;DHT22;7597;53.590;10.020;2022-10-31T02:05:54;12.60;99.90
15003;DHT22;7597;53.590;10.020;2022-10-31T02:08:30;12.60;99.90
15003;DHT22;7597;53.590;10.020;2022-10-31T02:10:57;12.60;99.90
15003;DHT22;7597;53.590;10.020;2022-10-31T02:13:23;12.50;99.90
15003;DHT22;7597;53.590;10.020;2022-10-31T02:15:52;12.50;99.90
15003;DHT22;7597;53.590;10.020;2022-10-31T02:18:18;12.50;99.90
15003;DHT22;7597;53.590;10.020;2022-10-31T02:20:54;12.50;99.90
15003;DHT22;7597;53.590;10.020;2022-10-31T02:23:27;12.50;99.90
15003;DHT22;7597;53.590;10.020;2022-10-31T02:28:40;12.40;99.90
15003;DHT22;7597;53.590;10.020;2022-10-31T02:31:39;12.50;99.90
15003;DHT22;7597;53.590;10.020;2022-10-31T02:34:14;12.40;99.90
15003;DHT22;7597;53.590;10.020;2022-10-31T02:36:43;12.40;99.90
15003;DHT22;7597;53.590;10.020;2022-10-31T02:39:26;12.40;99.90
15003;DHT22;7597;53.590;10.020;2022-10-31T02:42:04;12.50;99.90
15003;DHT22;7597;53.590;10.020;2022-10-31T02:44:38;12.40;99.90
15003;DHT22;7597;53.590;10.020;2022-10-31T02:47:08;12.40;99.90
15003;DHT22;7597;53.590;10.020;2022-10-31T02:49:36;12.40;99.90
15003;DHT22;7597;53.590;10.020;2022-10-31T02:52:00;12.40;99.90
15003;DHT22;7597;53.590;10.020;2022-10-31T02:54:27;12.40;99.90
15003;DHT22;7597;53.590;10.020;2022-10-31T02:56:58;12.40;99.90
15003;DHT22;7597;53.590;10.020;2022-10-31T02:59:21;12.40;99.90
15003;DHT22;7597;53.590;10.020;2022-10-31T03:02:09;12.40;99.90
15003;DHT22;7597;53.590;10.020;2022-10-31T03:04:42;12.40;99.90
15003;DHT22;7597;53.590;10.020;2022-10-31T03:07:15;12.30;99.90
15003;DHT22;7597;53.590;10.020;2022-10-31T03:10:03;12.30;99.90
15003;DHT22;7597;53.590;10.020;2022-10-31T03:12:27;12.40;99.90
15003;DHT22;7597;53.590;10.020;2022-10-31T03:14:56;12.20;99.90
15003;DHT22;7597;53.590;10.020;2022-10-31T03:17:23;12.20;99.90
15003;DHT22;7597;53.590;10.020;2022-10-31T03:19:48;12.20;99.90
15003;DHT22;7597;53.590;10.020;2022-10-31T03:22:17;12.20;99.90
15003;DHT22;7597;53.590;10.020;2022-10-31T03:24:45;12.10;99.90
15003;DHT22;7597;53.590;10.020;2022-10-31T03:27:12;12.10;99.90
15003;DHT22;7597;53.590;10.020;2022-10-31T03:29:38;12.10;99.90
15003;DHT22;7597;53.590;10.020;2022-10-31T03:32:06;12.20;99.90
15003;DHT22;7597;53.590;10.020;2022-10-31T03:34:32;12.20;99.90
15003;DHT22;7597;53.590;10.020;2022-10-31T03:37:00;12.30;99.90
15003;DHT22;7597;53.590;10.020;2022-10-31T03:39:26;12.20;99.90
15003;DHT22;7597;53.590;10.020;2022-10-31T03:41:56;12.30;99.90
15003;DHT22;7597;53.590;10.020;2022-10-31T03:44:21;12.20;99.90
15003;DHT22;7597;53.590;10.020;2022-10-31T03:46:48;12.20;99.90
15003;DHT22;7597;53.590;10.020;2022-10-31T03:49:15;12.30;99.90
15003;DHT22;7597;53.590;10.020;2022-10-31T03:51:57;12.30;99.90
15003;DHT22;7597;53.590;10.020;2022-10-31T03:54:26;12.30;99.90
15003;DHT22;7597;53.590;10.020;2022-10-31T03:56:57;12.40;99.90
15003;DHT22;7597;53.590;10.020;2022-10-31T03:59:29;12.40;99.90
15003;DHT22;7597;53.590;10.020;2022-10-31T04:01:56;12.30;99.90
15003;DHT22;7597;53.590;10.020;2022-10-31T04:04:21;12.40;99.90
15003;DHT22;7597;53.590;10.020;2022-10-31T04:06:48;12.40;99.90
15003;DHT22;7597;53.590;10.020;2022-10-31T04:09:15;12.40;99.90
15003;DHT22;7597;53.590;10.020;2022-10-31T04:11:43;12.40;99.90
15003;DHT22;7597;53.590;10.020;2022-10-31T04:14:09;12.50;99.90
15003;DHT22;7597;53.590;10.020;2022-10-31T04:16:37;12.50;99.90
15003;DHT22;7597;53.590;10.020;2022-10-31T04:19:03;12.40;99.90
15003;DHT22;7597;53.590;10.020;2022-10-31T04:21:30;12.40;99.90
15003;DHT22;7597;53.590;10.020;2022-10-31T04:23:57;12.50;99.90
15003;DHT22;7597;53.590;10.020;2022-10-31T04:26:25;12.40;99.90
15003;DHT22;7597;53.590;10.020;2022-10-31T04:28:52;12.40;99.90
15003;DHT22;7597;53.590;10.020;2022-10-31T04:31:18;12.40;99.90
15003;DHT22;7597;53.590;10.020;2022-10-31T04:33:45;12.40;99.90
15003;DHT22;7597;53.590;10.020;2022-10-31T04:36:12;12.40;99.90
15003;DHT22;7597;53.590;10.020;2022-10-31T04:38:38;12.40;99.90
15003;DHT22;7597;53.590;10.020;2022-10-31T04:41:05;12.50;99.90
15003;DHT22;7597;53.590;10.020;2022-10-31T04:43:32;12.40;99.90
15003;DHT22;7597;53.590;10.020;2022-10-31T04:45:59;12.40;99.90
15003;DHT22;7597;53.590;10.020;2022-10-31T04:48:26;12.40;99.90
15003;DHT22;7597;53.590;10.020;2022-10-31T04:50:52;12.40;99.90
15003;DHT22;7597;53.590;10.020;2022-10-31T04:53:19;12.40;99.90
15003;DHT22;7597;53.590;10.020;2022-10-31T04:55:46;12.50;99.90
15003;DHT22;7597;53.590;10.020;2022-10-31T04:58:12;12.50;99.90
15003;DHT22;7597;53.590;10.020;2022-10-31T05:00:39;12.60;99.90
15003;DHT22;7597;53.590;10.020;2022-10-31T05:03:06;12.60;99.90
15003;DHT22;7597;53.590;10.020;2022-10-31T05:05:32;12.70;99.90
15003;DHT22;7597;53.590;10.020;2022-10-31T05:07:59;12.70;99.90
15003;DHT22;7597;53.590;10.020;2022-10-31T05:10:27;12.70;99.90
15003;DHT22;7597;53.590;10.020;2022-10-31T05:12:53;12.70;99.90
15003;DHT22;7597;53.590;10.020;2022-10-31T05:15:20;12.70;99.90
15003;DHT22;7597;53.590;10.020;2022-10-31T05:17:47;12.60;99.90
15003;DHT22;7597;53.590;10.020;2022-10-31T05:20:14;12.60;99.90
15003;DHT22;7597;53.590;10.020;2022-10-31T05:22:48;12.70;99.90
15003;DHT22;7597;53.590;10.020;2022-10-31T05:25:14;12.70;99.90
15003;DHT22;7597;53.590;10.020;2022-10-31T05:27:41;12.70;99.90
15003;DHT22;7597;53.590;10.020;2022-10-31T05:30:09;12.70;99.90
15003;DHT22;7597;53.590;10.020;2022-10-31T05:32:38;12.70;99.90
15003;DHT22;7597;53.590;10.020;2022-10-31T05:35:05;12.70;99.90
15003;DHT22;7597;53.590;10.020;2022-10-31T05:37:32;12.70;99.90
15003;DHT22;7597;53.590;10.020;2022-10-31T05:39:58;12.70;99.90
15003;DHT22;7597;53.590;10.020;2022-10-31T05:42:25;12.70;99.90
15003;DHT22;7597;53.590;10.020;2022-10-31T05:44:52;12.70;99.90
15003;DHT22;7597;53.590;10.020;2022-10-31T05:47:19;12.70;99.90
15003;DHT22;7597;53.590;10.020;2022-10-31T05:49:45;12.70;99.90
15003;DHT22;7597;53.590;10.020;2022-10-31T05:52:12;12.70;99.90
15003;DHT22;7597;53.590;10.020;2022-10-31T05:54:39;12.80;99.90
15003;DHT22;7597;53.590;10.020;2022-10-31T05:57:05;12.70;99.90
15003;DHT22;7597;53.590;10.020;2022-10-31T05:59:32;12.80;99.90
15003;DHT22;7597;53.590;10.020;2022-10-31T06:01:59;12.80;99.90
15003;DHT22;7597;53.590;10.020;2022-10-31T06:04:26;12.80;99.90
15003;DHT22;7597;53.590;10.020;2022-10-31T06:06:52;12.80;99.90
15003;DHT22;7597;53.590;10.020;2022-10-31T06:09:19;12.80;99.90
15003;DHT22;7597;53.590;10.020;2022-10-31T06:11:46;12.80;99.90
15003;DHT22;7597;53.590;10.020;2022-10-31T06:14:13;12.80;99.90
15003;DHT22;7597;53.590;10.020;2022-10-31T06:16:40;12.80;99.90
15003;DHT22;7597;53.590;10.020;2022-10-31T06:19:06;12.90;99.90
15003;DHT22;7597;53.590;10.020;2022-10-31T06:21:33;12.90;99.90
15003;DHT22;7597;53.590;10.020;2022-10-31T06:24:01;12.90;99.90
15003;DHT22;7597;53.590;10.020;2022-10-31T06:26:27;12.80;99.90
15003;DHT22;7597;53.590;10.020;2022-10-31T06:28:54;12.90;99.90
15003;DHT22;7597;53.590;10.020;2022-10-31T06:31:21;12.90;99.90
15003;DHT22;7597;53.590;10.020;2022-10-31T06:33:48;12.90;99.90
15003;DHT22;7597;53.590;10.020;2022-10-31T06:36:14;12.90;99.90
15003;DHT22;7597;53.590;10.020;2022-10-31T06:38:41;12.90;99.90
15003;DHT22;7597;53.590;10.020;2022-10-31T06:41:08;12.90;99.90
15003;DHT22;7597;53.590;10.020;2022-10-31T06:43:35;12.90;99.90
15003;DHT22;7597;53.590;10.020;2022-10-31T06:46:02;12.90;99.90
15003;DHT22;7597;53.590;10.020;2022-10-31T06:48:29;13.00;99.90
15003;DHT22;7597;53.590;10.020;2022-10-31T06:50:59;12.90;99.90
15003;DHT22;7597;53.590;10.020;2022-10-31T06:53:25;13.00;99.90
15003;DHT22;7597;53.590;10.020;2022-10-31T06:55:52;13.00;99.90
15003;DHT22;7597;53.590;10.020;2022-10-31T06:58:18;13.00;99.90
15003;DHT22;7597;53.590;10.020;2022-10-31T07:00:45;13.00;99.90
15003;DHT22;7597;53.590;10.020;2022-10-31T07:03:13;13.00;99.90
15003;DHT22;7597;53.590;10.020;2022-10-31T07:05:40;13.00;99.90
15003;DHT22;7597;53.590;10.020;2022-10-31T07:08:10;13.00;99.90
15003;DHT22;7597;53.590;10.020;2022-10-31T07:10:35;13.00;99.90
15003;DHT22;7597;53.590;10.020;2022-10-31T07:13:03;13.00;99.90
15003;DHT22;7597;53.590;10.020;2022-10-31T07:15:33;13.00;99.90
15003;DHT22;7597;53.590;10.020;2022-10-31T07:17:59;13.10;99.90
15003;DHT22;7597;53.590;10.020;2022-10-31T07:20:26;13.10;99.90
15003;DHT22;7597;53.590;10.020;2022-10-31T07:22:53;13.10;99.90
15003;DHT22;7597;53.590;10.020;2022-10-31T07:25:20;13.10;99.90
15003;DHT22;7597;53.590;10.020;2022-10-31T07:27:46;13.00;99.90
15003;DHT22;7597;53.590;10.020;2022-10-31T07:30:13;12.90;99.90
15003;DHT22;7597;53.590;10.020;2022-10-31T07:32:40;12.90;99.90
15003;DHT22;7597;53.590;10.020;2022-10-31T07:35:08;12.80;99.90
15003;DHT22;7597;53.590;10.020;2022-10-31T07:37:34;12.80;99.90
15003;DHT22;7597;53.590;10.020;2022-10-31T07:40:02;12.90;99.90
15003;DHT22;7597;53.590;10.020;2022-10-31T07:42:28;12.80;99.90
15003;DHT22;7597;53.590;10.020;2022-10-31T07:44:54;12.90;99.90
15003;DHT22;7597;53.590;10.020;2022-10-31T07:47:21;12.80;99.90
15003;DHT22;7597;53.590;10.020;2022-10-31T07:49:48;12.80;99.90
15003;DHT22;7597;53.590;10.020;2022-10-31T07:52:15;12.80;99.90
15003;DHT22;7597;53.590;10.020;2022-10-31T07:54:41;12.80;99.90
15003;DHT22;7597;53.590;10.020;2022-10-31T07:57:08;12.70;99.90
15003;DHT22;7597;53.590;10.020;2022-10-31T07:59:36;12.70;99.90
15003;DHT22;7597;53.590;10.020;2022-10-31T08:02:03;12.80;99.90
15003;DHT22;7597;53.590;10.020;2022-10-31T08:04:30;12.80;99.90
15003;DHT22;7597;53.590;10.020;2022-10-31T08:06:57;12.90;99.90
15003;DHT22;7597;53.590;10.020;2022-10-31T08:09:24;13.00;99.90
15003;DHT22;7597;53.590;10.020;2022-10-31T08:11:50;13.10;99.90
15003;DHT22;7597;53.590;10.020;2022-10-31T08:14:17;13.20;99.90
15003;DHT22;7597;53.590;10.020;2022-10-31T08:16:44;13.40;99.90
15003;DHT22;7597;53.590;10.020;2022-10-31T08:19:11;13.50;99.90
15003;DHT22;7597;53.590;10.020;2022-10-31T08:21:37;13.50;99.90
15003;DHT22;7597;53.590;10.020;2022-10-31T08:24:05;13.60;99.90
15003;DHT22;7597;53.590;10.020;2022-10-31T08:26:32;13.60;99.90
15003;DHT22;7597;53.590;10.020;2022-10-31T08:28:59;13.60;99.90
15003;DHT22;7597;53.590;10.020;2022-10-31T08:31:26;13.60;99.90
15003;DHT22;7597;53.590;10.020;2022-10-31T08:33:53;13.70;99.90
15003;DHT22;7597;53.590;10.020;2022-10-31T08:36:21;13.80;99.90
15003;DHT22;7597;53.590;10.020;2022-10-31T08:38:48;13.80;99.90
15003;DHT22;7597;53.590;10.020;2022-10-31T08:41:15;13.90;99.90
15003;DHT22;7597;53.590;10.020;2022-10-31T08:43:41;13.90;58.90
15003;DHT22;7597;53.590;10.020;2022-10-31T08:46:08;14.00;32.70
15003;DHT22;7597;53.590;10.020;2022-10-31T08:48:35;13.90;1.00
15003;DHT22;7597;53.590;10.020;2022-10-31T08:51:02;13.90;1.00
15003;DHT22;7597;53.590;10.020;2022-10-31T08:53:29;13.80;1.00
15003;DHT22;7597;53.590;10.020;2022-10-31T08:55:56;13.70;1.00
15003;DHT22;7597;53.590;10.020;2022-10-31T08:58:23;13.70;1.00
15003;DHT22;7597;53.590;10.020;2022-10-31T09:00:51;13.70;1.00
15003;DHT22;7597;53.590;10.020;2022-10-31T09:03:18;13.70;1.00
15003;DHT22;7597;53.590;10.020;2022-10-31T09:05:43;13.70;1.00
15003;DHT22;7597;53.590;10.020;2022-10-31T09:08:10;13.70;1.00
15003;DHT22;7597;53.590;10.020;2022-10-31T09:10:37;13.80;1.00
15003;DHT22;7597;53.590;10.020;2022-10-31T09:15:45;14.00;1.00
15003;DHT22;7597;53.590;10.020;2022-10-31T09:18:12;14.00;1.00
15003;DHT22;7597;53.590;10.020;2022-10-31T09:20:41;14.00;1.00
15003;DHT22;7597;53.590;10.020;2022-10-31T09:23:17;14.00;1.00
15003;DHT22;7597;53.590;10.020;2022-10-31T09:25:53;14.10;1.00
15003;DHT22;7597;53.590;10.020;2022-10-31T09:28:23;14.10;1.00
15003;DHT22;7597;53.590;10.020;2022-10-31T09:30:51;14.00;1.00
15003;DHT22;7597;53.590;10.020;2022-10-31T09:33:18;14.00;1.00
15003;DHT22;7597;53.590;10.020;2022-10-31T09:35:44;14.10;1.00
15003;DHT22;7597;53.590;10.020;2022-10-31T09:38:12;14.20;1.00
15003;DHT22;7597;53.590;10.020;2022-10-31T09:40:42;14.20;1.00
15003;DHT22;7597;53.590;10.020;2022-10-31T09:43:37;14.30;1.00
15003;DHT22;7597;53.590;10.020;2022-10-31T09:48:52;14.50;1.00
15003;DHT22;7597;53.590;10.020;2022-10-31T09:51:18;14.60;1.00
15003;DHT22;7597;53.590;10.020;2022-10-31T09:53:48;14.70;1.00
15003;DHT22;7597;53.590;10.020;2022-10-31T09:56:14;14.60;99.90
15003;DHT22;7597;53.590;10.020;2022-10-31T09:58:47;14.60;99.90
15003;DHT22;7597;53.590;10.020;2022-10-31T10:04:27;14.70;99.90
15003;DHT22;7597;53.590;10.020;2022-10-31T10:06:47;14.70;99.90
15003;DHT22;7597;53.590;10.020;2022-10-31T10:09:15;14.70;99.90
15003;DHT22;7597;53.590;10.020;2022-10-31T10:11:53;14.80;99.90
15003;DHT22;7597;53.590;10.020;2022-10-31T10:14:23;14.90;99.90
15003;DHT22;7597;53.590;10.020;2022-10-31T10:16:56;14.90;99.90
15003;DHT22;7597;53.590;10.020;2022-10-31T10:19:29;14.70;99.90
15003;DHT22;7597;53.590;10.020;2022-10-31T10:22:04;14.70;99.90
15003;DHT22;7597;53.590;10.020;2022-10-31T10:24:38;14.90;99.90
15003;DHT22;7597;53.590;10.020;2022-10-31T10:27:26;15.00;99.90
15003;DHT22;7597;53.590;10.020;2022-10-31T10:29:58;15.10;99.90
15003;DHT22;7597;53.590;10.020;2022-10-31T10:32:37;15.10;99.90
15003;DHT22;7597;53.590;10.020;2022-10-31T10:35:42;15.30;99.90
15003;DHT22;7597;53.590;10.020;2022-10-31T10:37:54;15.40;99.90
15003;DHT22;7597;53.590;10.020;2022-10-31T10:40:20;15.40;99.90
15003;DHT22;7597;53.590;10.020;2022-10-31T10:43:16;15.40;99.90
15003;DHT22;7597;53.590;10.020;2022-10-31T10:45:41;15.20;99.90
15003;DHT22;7597;53.590;10.020;2022-10-31T10:48:15;15.10;99.90
15003;DHT22;7597;53.590;10.020;2022-10-31T10:50:44;15.30;99.90
15003;DHT22;7597;53.590;10.020;2022-10-31T10:53:17;15.50;99.90
15003;DHT22;7597;53.590;10.020;2022-10-31T10:55:50;15.50;99.90
15003;DHT22;7597;53.590;10.020;2022-10-31T10:58:17;15.60;99.90
15003;DHT22;7597;53.590;10.020;2022-10-31T11:00:44;15.50;99.90
15003;DHT22;7597;53.590;10.020;2022-10-31T11:03:11;15.50;99.90
15003;DHT22;7597;53.590;10.020;2022-10-31T11:05:41;15.60;99.90
15003;DHT22;7597;53.590;10.020;2022-10-31T11:08:06;15.70;99.90
15003;DHT22;7597;53.590;10.020;2022-10-31T11:10:33;15.90;99.10
15003;DHT22;7597;53.590;10.020;2022-10-31T11:13:06;15.90;99.10
15003;DHT22;7597;53.590;10.020;2022-10-31T11:15:36;16.00;94.70
15003;DHT22;7597;53.590;10.020;2022-10-31T11:18:01;16.10;75.40
15003;DHT22;7597;53.590;10.020;2022-10-31T11:20:36;16.10;36.50
15003;DHT22;7597;53.590;10.020;2022-10-31T11:23:10;16.20;41.90
15003;DHT22;7597;53.590;10.020;2022-10-31T11:25:31;16.30;18.00
15003;DHT22;7597;53.590;10.020;2022-10-31T11:28:00;16.30;1.00
15003;DHT22;7597;53.590;10.020;2022-10-31T11:30:26;16.20;1.00
15003;DHT22;7597;53.590;10.020;2022-10-31T11:32:53;16.20;1.00
15003;DHT22;7597;53.590;10.020;2022-10-31T11:35:20;16.20;1.00
15003;DHT22;7597;53.590;10.020;2022-10-31T11:37:48;16.20;1.00
15003;DHT22;7597;53.590;10.020;2022-10-31T11:40:18;16.40;1.00
15003;DHT22;7597;53.590;10.020;2022-10-31T11:42:44;16.10;1.00
15003;DHT22;7597;53.590;10.020;2022-10-31T11:45:19;16.30;1.00
15003;DHT22;7597;53.590;10.020;2022-10-31T11:47:46;16.60;1.00
15003;DHT22;7597;53.590;10.020;2022-10-31T11:50:11;16.70;1.00
15003;DHT22;7597;53.590;10.020;2022-10-31T11:52:38;16.80;1.00
15003;DHT22;7597;53.590;10.020;2022-10-31T11:55:26;16.80;1.00
15003;DHT22;7597;53.590;10.020;2022-10-31T11:57:46;16.60;1.00
15003;DHT22;7597;53.590;10.020;2022-10-31T12:00:23;16.70;1.00
15003;DHT22;7597;53.590;10.020;2022-10-31T12:02:48;16.90;1.00
15003;DHT22;7597;53.590;10.020;2022-10-31T12:05:21;16.90;1.00
15003;DHT22;7597;53.590;10.020;2022-10-31T12:07:48;17.40;1.00
15003;DHT22;7597;53.590;10.020;2022-10-31T12:10:15;17.90;1.00
15003;DHT22;7597;53.590;10.020;2022-10-31T12:13:05;18.50;1.00
15003;DHT22;7597;53.590;10.020;2022-10-31T12:15:33;18.90;1.00
15003;DHT22;7597;53.590;10.020;2022-10-31T12:21:04;18.50;1.00
15003;DHT22;7597;53.590;10.020;2022-10-31T12:23:34;18.70;1.00
15003;DHT22;7597;53.590;10.020;2022-10-31T12:29:05;18.80;1.00
15003;DHT22;7597;53.590;10.020;2022-10-31T12:34:31;18.70;1.00
15003;DHT22;7597;53.590;10.020;2022-10-31T12:37:06;17.50;1.00
15003;DHT22;7597;53.590;10.020;2022-10-31T12:39:39;17.10;1.00
15003;DHT22;7597;53.590;10.020;2022-10-31T12:42:12;17.00;1.00
15003;DHT22;7597;53.590;10.020;2022-10-31T12:44:47;16.80;1.00
15003;DHT22;7597;53.590;10.020;2022-10-31T12:47:30;16.80;1.00
15003;DHT22;7597;53.590;10.020;2022-10-31T12:53:07;16.60;1.00
15003;DHT22;7597;53.590;10.020;2022-10-31T12:55:48;16.50;1.00
15003;DHT22;7597;53.590;10.020;2022-10-31T12:58:26;16.60;1.00
15003;DHT22;7597;53.590;10.020;2022-10-31T13:01:33;16.30;1.00
15003;DHT22;7597;53.590;10.020;2022-10-31T13:03:48;16.40;1.00
15003;DHT22;7597;53.590;10.020;2022-10-31T13:06:16;16.00;1.00
15003;DHT22;7597;53.590;10.020;2022-10-31T13:11:25;15.90;1.00
15003;DHT22;7597;53.590;10.020;2022-10-31T13:14:10;15.70;1.00
15003;DHT22;7597;53.590;10.020;2022-10-31T13:16:41;15.80;1.00
15003;DHT22;7597;53.590;10.020;2022-10-31T13:19:25;16.00;1.00
15003;DHT22;7597;53.590;10.020;2022-10-31T13:22:06;16.00;1.00
15003;DHT22;7597;53.590;10.020;2022-10-31T13:27:24;15.30;1.00
15003;DHT22;7597;53.590;10.020;2022-10-31T13:30:10;15.00;1.00
15003;DHT22;7597;53.590;10.020;2022-10-31T13:32:40;14.90;1.00
15003;DHT22;7597;53.590;10.020;2022-10-31T13:35:07;14.80;1.00
15003;DHT22;7597;53.590;10.020;2022-10-31T13:37:37;14.80;1.00
15003;DHT22;7597;53.590;10.020;2022-10-31T13:43:02;15.10;1.00
15003;DHT22;7597;53.590;10.020;2022-10-31T13:45:26;15.30;1.00
15003;DHT22;7597;53.590;10.020;2022-10-31T13:50:38;15.50;1.00
15003;DHT22;7597;53.590;10.020;2022-10-31T13:53:19;15.70;1.00
15003;DHT22;7597;53.590;10.020;2022-10-31T13:55:48;15.70;1.00
15003;DHT22;7597;53.590;10.020;2022-10-31T13:58:23;15.90;1.00
15003;DHT22;7597;53.590;10.020;2022-10-31T14:00:59;16.00;1.00
15003;DHT22;7597;53.590;10.020;2022-10-31T14:03:26;16.20;1.00
15003;DHT22;7597;53.590;10.020;2022-10-31T14:05:53;16.10;1.00
15003;DHT22;7597;53.590;10.020;2022-10-31T14:08:20;16.00;1.00
15003;DHT22;7597;53.590;10.020;2022-10-31T14:10:47;16.00;1.00
15003;DHT22;7597;53.590;10.020;2022-10-31T14:13:19;16.00;1.00
15003;DHT22;7597;53.590;10.020;2022-10-31T14:15:52;16.20;1.00
15003;DHT22;7597;53.590;10.020;2022-10-31T14:18:19;16.30;1.00
15003;DHT22;7597;53.590;10.020;2022-10-31T14:20:42;16.20;1.00
15003;DHT22;7597;53.590;10.020;2022-10-31T14:23:12;15.80;1.00
15003;DHT22;7597;53.590;10.020;2022-10-31T14:25:38;15.70;1.00
15003;DHT22;7597;53.590;10.020;2022-10-31T14:30:59;15.50;1.00
15003;DHT22;7597;53.590;10.020;2022-10-31T14:33:26;15.40;1.00
15003;DHT22;7597;53.590;10.020;2022-10-31T14:35:58;15.10;1.00
15003;DHT22;7597;53.590;10.020;2022-10-31T14:38:32;15.10;1.00
15003;DHT22;7597;53.590;10.020;2022-10-31T14:41:08;15.00;1.00
15003;DHT22;7597;53.590;10.020;2022-10-31T14:43:59;14.90;1.00
15003;DHT22;7597;53.590;10.020;2022-10-31T14:46:32;14.80;1.00
15003;DHT22;7597;53.590;10.020;2022-10-31T14:49:19;14.80;1.00
15003;DHT22;7597;53.590;10.020;2022-10-31T14:51:44;14.70;1.00
15003;DHT22;7597;53.590;10.020;2022-10-31T14:54:14;14.70;1.00
15003;DHT22;7597;53.590;10.020;2022-10-31T14:56:48;14.70;1.00
15003;DHT22;7597;53.590;10.020;2022-10-31T14:59:13;14.70;1.00
15003;DHT22;7597;53.590;10.020;2022-10-31T15:01:48;14.70;1.00
15003;DHT22;7597;53.590;10.020;2022-10-31T15:04:15;14.60;1.00
15003;DHT22;7597;53.590;10.020;2022-10-31T15:06:44;14.50;1.00
15003;DHT22;7597;53.590;10.020;2022-10-31T15:11:49;14.40;1.00
15003;DHT22;7597;53.590;10.020;2022-10-31T15:14:24;14.30;1.00
15003;DHT22;7597;53.590;10.020;2022-10-31T15:16:50;14.20;1.00
15003;DHT22;7597;53.590;10.020;2022-10-31T15:19:21;14.10;9.90
15003;DHT22;7597;53.590;10.020;2022-10-31T15:21:47;14.10;22.60
15003;DHT22;7597;53.590;10.020;2022-10-31T15:24:14;14.00;38.50
15003;DHT22;7597;53.590;10.020;2022-10-31T15:26:46;14.00;55.40
15003;DHT22;7597;53.590;10.020;2022-10-31T15:29:19;13.80;52.90
15003;DHT22;7597;53.590;10.020;2022-10-31T15:31:55;13.80;66.60
15003;DHT22;7597;53.590;10.020;2022-10-31T15:34:30;13.70;87.30
15003;DHT22;7597;53.590;10.020;2022-10-31T15:36:55;13.70;87.60
15003;DHT22;7597;53.590;10.020;2022-10-31T15:39:22;13.60;91.40
15003;DHT22;7597;53.590;10.020;2022-10-31T15:41:58;13.60;93.20
15003;DHT22;7597;53.590;10.020;2022-10-31T15:44:28;13.60;95.80
15003;DHT22;7597;53.590;10.020;2022-10-31T15:46:58;13.60;96.40
15003;DHT22;7597;53.590;10.020;2022-10-31T15:49:32;13.50;96.40
15003;DHT22;7597;53.590;10.020;2022-10-31T15:52:22;13.50;99.30
15003;DHT22;7597;53.590;10.020;2022-10-31T15:54:45;13.40;99.50
15003;DHT22;7597;53.590;10.020;2022-10-31T15:57:17;13.50;99.90
15003;DHT22;7597;53.590;10.020;2022-10-31T15:59:54;13.40;99.90
15003;DHT22;7597;53.590;10.020;2022-10-31T16:02:26;13.40;99.90
15003;DHT22;7597;53.590;10.020;2022-10-31T16:04:55;13.30;99.90
15003;DHT22;7597;53.590;10.020;2022-10-31T16:07:24;13.20;99.90
15003;DHT22;7597;53.590;10.020;2022-10-31T16:09:55;13.10;99.90
15003;DHT22;7597;53.590;10.020;2022-10-31T16:12:44;13.10;99.90
15003;DHT22;7597;53.590;10.020;2022-10-31T16:15:28;13.00;99.90
15003;DHT22;7597;53.590;10.020;2022-10-31T16:17:55;13.00;99.90
15003;DHT22;7597;53.590;10.020;2022-10-31T16:20:27;13.00;99.90
15003;DHT22;7597;53.590;10.020;2022-10-31T16:22:55;12.90;99.90
15003;DHT22;7597;53.590;10.020;2022-10-31T16:25:29;12.90;99.90
15003;DHT22;7597;53.590;10.020;2022-10-31T16:27:58;12.90;99.90